createdAt,value
2017-06-18T00:00:43.149Z,95115.75
2017-06-18T00:03:10.655Z,95115.13
2017-06-18T00:05:38.159Z,95114.69
2017-06-18T00:08:05.709Z,95120.41
2017-06-18T00:10:33.216Z,95123.16
2017-06-18T00:13:00.762Z,95117.69
2017-06-18T00:15:28.332Z,95113.41
2017-06-18T00:17:55.845Z,95111.47
2017-06-18T00:20:23.346Z,95121.60
2017-06-18T00:22:51.078Z,95123.94
2017-06-18T00:25:18.612Z,95119.77
2017-06-18T00:27:46.123Z,95121.02
2017-06-18T00:30:13.792Z,95118.91
2017-06-18T00:32:42.646Z,95124.60
2017-06-18T00:35:10.165Z,95123.52
2017-06-18T00:37:37.758Z,95116.28
2017-06-18T00:40:05.264Z,95122.66
2017-06-18T00:42:32.821Z,95122.89
2017-06-18T00:45:00.386Z,95118.30
2017-06-18T00:47:27.880Z,95129.46
2017-06-18T00:49:55.387Z,95129.13
2017-06-18T00:52:22.968Z,95126.09
2017-06-18T00:54:50.495Z,95122.65
2017-06-18T00:57:18.056Z,95119.55
2017-06-18T00:59:45.604Z,95032.91
2017-06-18T01:02:13.153Z,95125.64
2017-06-18T01:04:40.737Z,95131.47
2017-06-18T01:07:08.246Z,95132.71
2017-06-18T01:09:35.777Z,95124.52
2017-06-18T01:12:03.297Z,95125.13
2017-06-18T01:14:30.857Z,95119.47
2017-06-18T01:16:58.456Z,95122.36
2017-06-18T01:19:26.022Z,95117.87
2017-06-18T01:21:53.542Z,95101.30
2017-06-18T01:24:21.090Z,95104.64
2017-06-18T01:26:48.607Z,95104.64
2017-06-18T01:29:16.101Z,95109.66
2017-06-18T01:31:43.662Z,95108.20
2017-06-18T01:34:11.479Z,95104.76
2017-06-18T01:36:38.991Z,95104.77
2017-06-18T01:39:06.560Z,95096.12
2017-06-18T01:41:34.062Z,95099.92
2017-06-18T01:44:01.689Z,95094.16
2017-06-18T01:46:29.240Z,95094.41
2017-06-18T01:48:56.789Z,95102.96
2017-06-18T01:51:24.294Z,95102.36
2017-06-18T01:53:52.003Z,95094.75
2017-06-18T01:56:19.820Z,95095.05
2017-06-18T01:58:47.324Z,95090.99
2017-06-18T02:01:14.857Z,95092.53
2017-06-18T02:03:42.427Z,95089.66
2017-06-18T02:06:09.944Z,95079.53
2017-06-18T02:08:37.481Z,95062.91
2017-06-18T02:11:05.068Z,95073.77
2017-06-18T02:13:32.618Z,95073.83
2017-06-18T02:16:00.218Z,95065.41
2017-06-18T02:18:27.749Z,95066.87
2017-06-18T02:20:55.265Z,95066.17
2017-06-18T02:23:22.813Z,95069.43
2017-06-18T02:25:50.338Z,95061.13
2017-06-18T02:28:17.901Z,95065.28
2017-06-18T02:30:45.464Z,95074.56
2017-06-18T02:33:12.986Z,95089.56
2017-06-18T02:35:40.509Z,95097.02
2017-06-18T02:38:08.051Z,95103.69
2017-06-18T02:40:35.573Z,95105.65
2017-06-18T02:43:03.072Z,95109.94
2017-06-18T02:45:30.660Z,95103.89
2017-06-18T02:47:58.187Z,95113.45
2017-06-18T02:50:25.749Z,95113.77
2017-06-18T02:52:53.291Z,95121.52
2017-06-18T02:55:20.789Z,95116.27
2017-06-18T02:57:48.617Z,95120.80
2017-06-18T03:00:16.290Z,95126.25
2017-06-18T03:02:43.784Z,95119.80
2017-06-18T03:05:11.309Z,95121.82
2017-06-18T03:07:38.848Z,95101.08
2017-06-18T03:10:18.254Z,95102.25
2017-06-18T03:12:45.772Z,95108.59
2017-06-18T03:15:13.261Z,95117.98
2017-06-18T03:17:40.770Z,95125.60
2017-06-18T03:20:08.310Z,95133.92
2017-06-18T03:22:35.841Z,95130.53
2017-06-18T03:25:03.353Z,95124.00
2017-06-18T03:27:30.959Z,95136.10
2017-06-18T03:29:58.483Z,95126.61
2017-06-18T03:32:26.006Z,95137.90
2017-06-18T03:34:53.529Z,95133.97
2017-06-18T03:37:21.032Z,95139.38
2017-06-18T03:39:48.579Z,95136.34
2017-06-18T03:42:16.081Z,95136.86
2017-06-18T03:44:43.580Z,95138.33
2017-06-18T03:47:11.107Z,95129.78
2017-06-18T03:49:38.641Z,95145.06
2017-06-18T03:52:06.194Z,95150.11
2017-06-18T03:54:33.989Z,95154.73
2017-06-18T03:57:01.548Z,95135.91
2017-06-18T03:59:29.061Z,95132.18
2017-06-18T04:01:56.620Z,95135.98
2017-06-18T04:04:24.174Z,95132.51
2017-06-18T04:06:51.706Z,95135.00
2017-06-18T04:09:19.261Z,95149.89
2017-06-18T04:11:46.761Z,95136.79
2017-06-18T04:14:14.284Z,95141.31
2017-06-18T04:16:41.837Z,95135.38
2017-06-18T04:19:09.341Z,95136.05
2017-06-18T04:21:36.858Z,95141.84
2017-06-18T04:24:04.396Z,95147.33
2017-06-18T04:26:31.931Z,95151.09
2017-06-18T04:28:59.430Z,95149.19
2017-06-18T04:31:27.025Z,95145.95
2017-06-18T04:33:54.557Z,95145.27
2017-06-18T04:36:22.192Z,95146.08
2017-06-18T04:38:49.737Z,95145.03
2017-06-18T04:41:17.272Z,95140.83
2017-06-18T04:43:44.771Z,95146.13
2017-06-18T04:46:12.346Z,95143.20
2017-06-18T04:48:39.841Z,95154.03
2017-06-18T04:51:07.348Z,95144.84
2017-06-18T04:53:34.943Z,95154.47
2017-06-18T04:56:02.484Z,95156.32
2017-06-18T04:58:29.987Z,95152.41
2017-06-18T05:00:57.570Z,95151.79
2017-06-18T05:03:25.072Z,95153.92
2017-06-18T05:05:52.634Z,95148.81
2017-06-18T05:08:20.242Z,95150.76
2017-06-18T05:10:47.794Z,95161.34
2017-06-18T05:13:15.354Z,95139.91
2017-06-18T05:15:42.938Z,95142.11
2017-06-18T05:18:10.442Z,95150.88
2017-06-18T05:20:37.968Z,95138.52
2017-06-18T05:23:05.528Z,95140.69
2017-06-18T05:25:33.035Z,95133.14
2017-06-18T05:28:00.533Z,95058.75
2017-06-18T05:30:28.197Z,95137.46
2017-06-18T05:32:55.758Z,95140.50
2017-06-18T05:35:23.264Z,95141.91
2017-06-18T05:37:50.816Z,95149.48
2017-06-18T05:40:18.329Z,95157.33
2017-06-18T05:42:45.827Z,95152.10
2017-06-18T05:45:13.357Z,95168.05
2017-06-18T05:47:40.870Z,95162.52
2017-06-18T05:50:08.409Z,95168.93
2017-06-18T05:52:35.996Z,95171.17
2017-06-18T05:55:03.567Z,95177.39
2017-06-18T05:57:31.081Z,95170.33
2017-06-18T05:59:58.708Z,95142.90
2017-06-18T06:02:26.266Z,95174.36
2017-06-18T06:04:53.778Z,95163.19
2017-06-18T06:07:21.276Z,95175.85
2017-06-18T06:09:48.842Z,95179.31
2017-06-18T06:12:16.422Z,95178.75
2017-06-18T06:14:43.941Z,95183.99
2017-06-18T06:17:11.561Z,95180.45
2017-06-18T06:19:40.422Z,95185.55
2017-06-18T06:22:08.292Z,95191.70
2017-06-18T06:24:35.835Z,95194.83
2017-06-18T06:27:03.381Z,95188.98
2017-06-18T06:29:30.893Z,95193.69
2017-06-18T06:31:58.439Z,95199.30
2017-06-18T06:34:25.973Z,95197.84
2017-06-18T06:36:53.473Z,95199.84
2017-06-18T06:39:21.004Z,95202.48
2017-06-18T06:41:48.505Z,95194.92
2017-06-18T06:44:16.008Z,95190.84
2017-06-18T06:46:43.614Z,95192.73
2017-06-18T06:49:11.176Z,95200.41
2017-06-18T06:51:44.227Z,95197.05
2017-06-18T06:54:12.995Z,95191.73
2017-06-18T06:56:40.529Z,95191.91
2017-06-18T06:59:08.065Z,95189.41
2017-06-18T07:01:35.600Z,95182.36
2017-06-18T07:04:03.105Z,95188.12
2017-06-18T07:06:30.692Z,95190.41
2017-06-18T07:08:58.313Z,95195.71
2017-06-18T07:11:25.825Z,95193.94
2017-06-18T07:13:54.380Z,95186.85
2017-06-18T07:16:22.180Z,95197.59
2017-06-18T07:18:49.707Z,95195.46
2017-06-18T07:21:17.458Z,95206.44
2017-06-18T07:23:44.994Z,95211.81
2017-06-18T07:26:12.551Z,95211.95
2017-06-18T07:28:40.059Z,95216.50
2017-06-18T07:31:07.619Z,95210.96
2017-06-18T07:33:35.144Z,95207.42
2017-06-18T07:36:02.698Z,95174.58
2017-06-18T07:38:30.253Z,95221.31
2017-06-18T07:40:57.807Z,95217.63
2017-06-18T07:43:25.381Z,95222.55
2017-06-18T07:45:52.926Z,95223.98
2017-06-18T07:48:20.437Z,95228.85
2017-06-18T07:50:48.011Z,95221.84
2017-06-18T07:53:15.543Z,95225.06
2017-06-18T07:55:43.045Z,95225.05
2017-06-18T07:58:10.535Z,95194.85
2017-06-18T08:00:38.074Z,95222.66
2017-06-18T08:03:05.594Z,95227.45
2017-06-18T08:05:33.097Z,95234.06
2017-06-18T08:08:00.715Z,95233.41
2017-06-18T08:10:28.279Z,95236.53
2017-06-18T08:12:55.871Z,95238.09
2017-06-18T08:15:23.486Z,95232.64
2017-06-18T08:17:51.071Z,95235.34
2017-06-18T08:20:18.615Z,95237.01
2017-06-18T08:22:46.202Z,95229.48
2017-06-18T08:25:13.730Z,95235.64
2017-06-18T08:27:41.254Z,95232.02
2017-06-18T08:30:09.009Z,95232.16
2017-06-18T08:32:36.528Z,95227.03
2017-06-18T08:35:04.038Z,95230.95
2017-06-18T08:37:31.617Z,95229.26
2017-06-18T08:39:59.117Z,95231.49
2017-06-18T08:42:26.677Z,95221.95
2017-06-18T08:44:54.292Z,95224.72
2017-06-18T08:47:21.795Z,95224.66
2017-06-18T08:49:49.353Z,95220.21
2017-06-18T08:52:16.913Z,95204.88
2017-06-18T08:54:44.443Z,95226.22
2017-06-18T08:57:11.957Z,95225.49
2017-06-18T08:59:39.521Z,95226.25
2017-06-18T09:02:10.472Z,95226.37
2017-06-18T09:04:38.337Z,95232.79
2017-06-18T09:07:05.909Z,95236.50
2017-06-18T09:09:34.764Z,95233.72
2017-06-18T09:12:02.361Z,95232.76
2017-06-18T09:14:29.922Z,95234.64
2017-06-18T09:16:57.532Z,95233.33
2017-06-18T09:19:25.115Z,95235.50
2017-06-18T09:21:52.635Z,95234.64
2017-06-18T09:24:20.261Z,95235.20
2017-06-18T09:26:47.829Z,95232.74
2017-06-18T09:29:15.356Z,95232.69
2017-06-18T09:31:42.888Z,95237.47
2017-06-18T09:34:10.405Z,95234.11
2017-06-18T09:36:37.910Z,95221.47
2017-06-18T09:39:05.470Z,95223.39
2017-06-18T09:41:33.053Z,95227.06
2017-06-18T09:44:01.266Z,95228.76
2017-06-18T09:46:28.800Z,95222.69
2017-06-18T09:48:56.316Z,95220.02
2017-06-18T09:51:23.829Z,95218.79
2017-06-18T09:53:51.704Z,95213.34
2017-06-18T09:56:19.557Z,95226.74
2017-06-18T09:58:47.057Z,95226.53
2017-06-18T10:01:14.599Z,95227.27
2017-06-18T10:03:42.109Z,95227.93
2017-06-18T10:06:10.102Z,95231.55
2017-06-18T10:08:38.513Z,95237.90
2017-06-18T10:11:06.435Z,95240.36
2017-06-18T10:13:34.038Z,95238.16
2017-06-18T10:16:01.609Z,95239.61
2017-06-18T10:18:29.157Z,95234.68
2017-06-18T10:20:59.129Z,95245.45
2017-06-18T10:23:28.127Z,95244.11
2017-06-18T10:26:03.042Z,95243.49
2017-06-18T10:28:30.686Z,95253.89
2017-06-18T10:31:00.130Z,95240.50
2017-06-18T10:33:33.908Z,95247.84
2017-06-18T10:36:02.600Z,95246.13
2017-06-18T10:38:30.898Z,95248.81
2017-06-18T10:41:03.971Z,95248.48
2017-06-18T10:43:31.688Z,95246.18
2017-06-18T10:45:59.194Z,95237.19
2017-06-18T10:48:26.813Z,95239.00
2017-06-18T10:50:54.436Z,95234.98
2017-06-18T10:53:21.937Z,95242.73
2017-06-18T10:55:53.294Z,95240.30
2017-06-18T10:58:20.932Z,95245.14
2017-06-18T11:00:49.786Z,95236.08
2017-06-18T11:03:17.685Z,95234.39
2017-06-18T11:05:46.476Z,95236.11
2017-06-18T11:08:14.773Z,95235.14
2017-06-18T11:10:44.335Z,95237.09
2017-06-18T11:13:14.257Z,95239.40
2017-06-18T11:15:41.866Z,95242.88
2017-06-18T11:18:10.618Z,95242.48
2017-06-18T11:20:39.638Z,95238.17
2017-06-18T11:23:07.312Z,95239.77
2017-06-18T11:25:37.143Z,95237.35
2017-06-18T11:28:11.876Z,95236.37
2017-06-18T11:30:43.921Z,95237.14
2017-06-18T11:33:14.735Z,95231.48
2017-06-18T11:35:43.996Z,95234.98
2017-06-18T11:38:24.066Z,95232.08
2017-06-18T11:41:01.929Z,95231.85
2017-06-18T11:46:07.617Z,95228.74
2017-06-18T11:48:35.553Z,95229.53
2017-06-18T11:51:03.086Z,95270.98
2017-06-18T11:53:30.632Z,95235.38
2017-06-18T11:55:58.211Z,95233.64
2017-06-18T11:58:26.781Z,95151.27
2017-06-18T12:00:54.508Z,95234.02
2017-06-18T12:03:29.728Z,95234.81
2017-06-18T12:06:06.093Z,95241.84
2017-06-18T12:08:34.255Z,95240.13
2017-06-18T12:11:04.647Z,95246.02
2017-06-18T12:13:32.296Z,95242.97
2017-06-18T12:15:59.883Z,95239.31
2017-06-18T12:19:04.880Z,95255.02
2017-06-18T12:21:32.898Z,95241.02
2017-06-18T12:24:00.646Z,95244.23
2017-06-18T12:26:29.545Z,95239.63
2017-06-18T12:28:58.912Z,95239.41
2017-06-18T12:31:30.359Z,95239.88
2017-06-18T12:33:58.011Z,95237.94
2017-06-18T12:36:29.490Z,95240.95
2017-06-18T12:39:00.562Z,95235.13
2017-06-18T12:41:28.105Z,95247.27
2017-06-18T12:44:00.574Z,95245.09
2017-06-18T12:46:38.543Z,95247.33
2017-06-18T12:49:14.526Z,95249.53
2017-06-18T12:51:42.539Z,95240.88
2017-06-18T12:54:10.375Z,95244.37
2017-06-18T12:56:44.497Z,95242.23
2017-06-18T12:59:12.186Z,95239.88
2017-06-18T13:01:39.784Z,95240.86
2017-06-18T13:04:12.863Z,95236.70
2017-06-18T13:06:41.203Z,95233.40
2017-06-18T13:09:10.091Z,95237.94
2017-06-18T13:11:43.370Z,95246.56
2017-06-18T13:14:11.207Z,95244.89
2017-06-18T13:16:39.722Z,95244.11
2017-06-18T13:19:07.295Z,95247.14
2017-06-18T13:21:42.367Z,95244.86
2017-06-18T13:24:09.912Z,95248.13
2017-06-18T13:26:37.449Z,95239.41
2017-06-18T13:29:11.960Z,95243.55
2017-06-18T13:31:39.577Z,95250.00
2017-06-18T13:34:13.302Z,95252.50
2017-06-18T13:36:41.530Z,95254.05
2017-06-18T13:39:11.448Z,95247.94
2017-06-18T13:41:39.361Z,95258.72
2017-06-18T13:44:12.031Z,95245.24
2017-06-18T13:46:39.732Z,95235.29
2017-06-18T13:49:11.750Z,95231.73
2017-06-18T13:51:39.265Z,95227.09
2017-06-18T13:54:07.017Z,95226.81
2017-06-18T13:56:37.601Z,95227.33
2017-06-18T13:59:05.433Z,95229.44
2017-06-18T14:01:33.622Z,95207.52
2017-06-18T14:04:06.293Z,95231.00
2017-06-18T14:06:35.261Z,95228.56
2017-06-18T14:09:02.947Z,95231.80
2017-06-18T14:11:32.213Z,95232.19
2017-06-18T14:13:59.853Z,95236.05
2017-06-18T14:16:32.376Z,95233.12
2017-06-18T14:46:15.184Z,95244.75
2017-06-18T14:48:48.386Z,95246.75
2017-06-18T14:51:19.792Z,95243.39
2017-06-18T14:53:47.293Z,95234.49
2017-06-18T14:56:14.789Z,95231.22
2017-06-18T14:58:52.861Z,95236.59
2017-06-18T15:01:20.401Z,95236.12
2017-06-18T15:03:49.923Z,95247.48
2017-06-18T15:06:20.379Z,95235.77
2017-06-18T15:08:48.117Z,95240.05
2017-06-18T15:11:18.649Z,95248.46
2017-06-18T15:13:46.473Z,95252.47
2017-06-18T15:16:14.062Z,95249.34
2017-06-18T15:18:42.339Z,95248.58
2017-06-18T15:21:09.999Z,95258.33
2017-06-18T15:23:37.513Z,95261.23
2017-06-18T15:26:10.502Z,95260.70
2017-06-18T15:28:38.136Z,95249.55
2017-06-18T15:31:05.742Z,95254.89
2017-06-18T15:33:33.500Z,95248.40
2017-06-18T15:36:01.007Z,95260.95
2017-06-18T15:38:28.589Z,95257.44
2017-06-18T15:40:56.448Z,95261.55
2017-06-18T15:43:23.949Z,95254.20
2017-06-18T15:45:51.584Z,95258.86
2017-06-18T15:48:19.169Z,95274.31
2017-06-18T15:50:46.720Z,95266.64
2017-06-18T15:53:14.338Z,95273.08
2017-06-18T15:55:41.949Z,95279.16
2017-06-18T15:58:09.467Z,95272.75
2017-06-18T16:00:37.123Z,95271.80
2017-06-18T16:03:04.653Z,95280.34
2017-06-18T16:05:32.459Z,95275.48
2017-06-18T16:08:04.483Z,95284.14
2017-06-18T16:15:22.735Z,95288.67
2017-06-18T16:17:50.765Z,95297.39
2017-06-18T16:20:18.340Z,95292.55
2017-06-18T16:22:46.035Z,95289.44
2017-06-18T16:25:13.804Z,95292.26
2017-06-18T16:27:41.312Z,95301.88
2017-06-18T16:30:09.718Z,95304.77
2017-06-18T16:32:37.212Z,95291.22
2017-06-18T16:35:05.186Z,95307.65
2017-06-18T16:37:33.056Z,95311.08
2017-06-18T16:40:00.709Z,95315.34
2017-06-18T16:42:28.249Z,95307.73
2017-06-18T16:44:56.813Z,95315.61
2017-06-18T16:47:27.758Z,95318.45
2017-06-18T16:49:59.783Z,95317.17
2017-06-18T16:52:27.368Z,95294.77
2017-06-18T16:54:55.546Z,95315.98
2017-06-18T16:57:23.316Z,95309.27
2017-06-18T16:59:50.857Z,95318.98
2017-06-18T17:02:18.632Z,95325.47
2017-06-18T17:04:46.359Z,95318.31
2017-06-18T17:07:13.925Z,95322.29
2017-06-18T17:09:41.837Z,95321.43
2017-06-18T17:12:09.423Z,95319.56
2017-06-18T17:14:37.006Z,95329.77
2017-06-18T17:17:04.591Z,95323.70
2017-06-18T17:19:32.211Z,95331.11
2017-06-18T17:22:05.719Z,95327.47
2017-06-18T17:24:33.382Z,95333.16
2017-06-18T17:27:00.996Z,95327.39
2017-06-18T17:29:28.662Z,95330.30
2017-06-18T17:31:57.173Z,95326.72
2017-06-18T17:34:24.946Z,95334.39
2017-06-18T17:36:52.511Z,95333.89
2017-06-18T17:39:20.144Z,95331.61
2017-06-18T17:41:47.780Z,95326.16
2017-06-18T17:44:15.364Z,95330.53
2017-06-18T17:46:43.028Z,95330.94
2017-06-18T17:49:10.647Z,95330.92
2017-06-18T17:51:38.294Z,95331.61
2017-06-18T17:54:09.297Z,95332.41
2017-06-18T17:56:36.945Z,95335.20
2017-06-18T17:59:04.587Z,95337.21
2017-06-18T18:01:32.297Z,95344.91
2017-06-18T18:04:03.681Z,95340.69
2017-06-18T18:06:31.338Z,95341.14
2017-06-18T18:09:00.756Z,95342.89
2017-06-18T18:11:28.504Z,95346.97
2017-06-18T18:13:56.234Z,95349.05
2017-06-18T18:16:23.994Z,95346.31
2017-06-18T18:18:55.783Z,95345.50
2017-06-18T18:21:26.053Z,95353.61
2017-06-18T18:24:02.965Z,95351.70
2017-06-18T18:26:35.058Z,95353.92
2017-06-18T18:29:02.874Z,95364.38
2017-06-18T18:34:12.259Z,95365.17
2017-06-18T18:36:42.452Z,95371.11
2017-06-18T18:39:14.561Z,95371.39
2017-06-18T18:41:46.231Z,95378.23
2017-06-18T18:44:32.697Z,95369.38
2017-06-18T18:47:03.086Z,95377.09
2017-06-18T18:49:35.529Z,95375.50
2017-06-18T18:52:08.730Z,95378.24
2017-06-18T18:54:38.422Z,95383.56
2017-06-18T18:57:07.843Z,95386.96
2017-06-18T18:59:37.561Z,95385.03
2017-06-18T19:02:07.994Z,95395.12
2017-06-18T19:04:38.121Z,95393.42
2017-06-18T19:07:08.884Z,95391.05
2017-06-18T19:09:39.716Z,95401.62
2017-06-18T19:12:07.605Z,95399.51
2017-06-18T19:14:36.367Z,95401.56
2017-06-18T19:17:04.100Z,95405.98
2017-06-18T19:19:31.793Z,95402.35
2017-06-18T19:22:01.387Z,95408.08
2017-06-18T19:24:36.835Z,95398.19
2017-06-18T19:27:07.992Z,95401.00
2017-06-18T19:29:38.160Z,95405.72
2017-06-18T19:32:11.928Z,95408.19
2017-06-18T19:34:43.186Z,95414.83
2017-06-18T19:37:15.238Z,95415.61
2017-06-18T19:39:45.846Z,95411.98
2017-06-18T19:42:17.555Z,95420.13
2017-06-18T19:44:49.960Z,95415.02
2017-06-18T19:47:40.346Z,95421.38
2017-06-18T19:50:09.493Z,95422.66
2017-06-18T19:52:54.157Z,95418.91
2017-06-18T19:58:15.668Z,95431.62
2017-06-18T20:00:43.382Z,95428.83
2017-06-18T20:06:42.897Z,95428.58
2017-06-18T20:09:15.446Z,95425.57
2017-06-18T20:11:50.305Z,95421.48
2017-06-18T20:14:20.272Z,95426.33
2017-06-18T20:16:48.568Z,95433.88
2017-06-18T20:19:19.655Z,95426.77
2017-06-18T20:21:47.512Z,95429.44
2017-06-18T20:24:16.591Z,95425.60
2017-06-18T20:26:44.491Z,95427.36
2017-06-18T20:29:13.386Z,95417.42
2017-06-18T20:31:41.827Z,95430.64
2017-06-18T20:34:09.402Z,95427.31
2017-06-18T20:36:36.982Z,95419.25
2017-06-18T20:39:05.440Z,95419.67
2017-06-18T20:41:32.945Z,95419.21
2017-06-18T20:44:00.560Z,95423.54
2017-06-18T20:46:31.129Z,95420.52
2017-06-18T20:48:59.317Z,95420.45
2017-06-18T20:51:27.172Z,95422.41
2017-06-18T20:53:55.676Z,95419.83
2017-06-18T20:56:23.707Z,95420.60
2017-06-18T20:58:51.632Z,95413.42
2017-06-18T21:01:19.376Z,95423.88
2017-06-18T21:03:47.383Z,95429.91
2017-06-18T21:06:15.267Z,95420.25
2017-06-18T21:08:45.475Z,95426.69
2017-06-18T21:11:18.778Z,95427.32
2017-06-18T21:13:48.059Z,95429.77
2017-06-18T21:16:15.769Z,95421.13
2017-06-18T21:18:44.867Z,95418.22
2017-06-18T21:21:13.911Z,95422.52
2017-06-18T21:23:56.572Z,95421.59
2017-06-18T21:26:29.444Z,95422.76
2017-06-18T21:29:03.060Z,95422.26
2017-06-18T21:31:34.626Z,95421.39
2017-06-18T21:34:09.634Z,95416.59
2017-06-18T21:36:47.028Z,95418.48
2017-06-18T21:39:21.115Z,95415.84
2017-06-18T21:41:55.025Z,95406.79
2017-06-18T21:44:26.740Z,95416.20
2017-06-18T21:46:55.578Z,95418.19
2017-06-18T21:49:23.258Z,95413.62
2017-06-18T21:52:10.936Z,95429.79
2017-06-18T21:54:44.694Z,95422.33
2017-06-18T21:57:19.425Z,95424.05
2017-06-18T21:59:51.877Z,95422.41
2017-06-18T22:02:21.763Z,95429.35
2017-06-18T22:04:52.487Z,95428.91
2017-06-18T22:07:28.477Z,95430.20
2017-06-18T22:09:59.633Z,95431.67
2017-06-18T22:12:33.214Z,95429.97
2017-06-18T22:15:03.511Z,95424.44
2017-06-18T22:17:36.984Z,95430.14
2017-06-18T22:20:13.189Z,95428.02
2017-06-18T22:22:49.512Z,95427.58
2017-06-18T22:28:01.178Z,95430.78
2017-06-18T22:30:36.421Z,95421.89
2017-06-18T22:33:04.109Z,95422.64
2017-06-18T22:35:31.645Z,95427.69
2017-06-18T22:37:59.201Z,95431.29
2017-06-18T22:40:27.618Z,95402.60
2017-06-18T22:42:59.273Z,95435.37
2017-06-18T22:45:29.427Z,95424.09
2017-06-18T22:50:36.739Z,95441.06
2017-06-18T22:53:09.855Z,95433.05
2017-06-18T22:55:51.415Z,95440.72
2017-06-18T22:58:26.217Z,95426.39
2017-06-18T23:01:15.349Z,95420.34
2017-06-18T23:03:48.406Z,95429.49
2017-06-18T23:06:25.099Z,95433.44
2017-06-18T23:08:57.544Z,95425.58
2017-06-18T23:11:25.544Z,95436.50
2017-06-18T23:13:57.034Z,95430.09
2017-06-18T23:16:25.494Z,95430.63
2017-06-18T23:18:53.224Z,95438.98
2017-06-18T23:21:27.651Z,95434.45
2017-06-18T23:23:59.959Z,95441.72
2017-06-18T23:26:36.603Z,95439.45
2017-06-18T23:29:23.430Z,95442.03
2017-06-18T23:31:57.897Z,95440.61
2017-06-18T23:34:26.001Z,95446.61
2017-06-18T23:37:01.478Z,95425.78
2017-06-18T23:39:35.273Z,95453.17
2017-06-18T23:42:09.993Z,95459.34
2017-06-18T23:44:54.831Z,95451.64
2017-06-18T23:47:38.754Z,95453.39
2017-06-18T23:50:20.170Z,95454.23
2017-06-18T23:56:09.705Z,95441.77
2017-06-18T23:58:38.254Z,95439.38
